Observation data for Olton on 03/11/2018      Previous  Date  Next       Current Mesonet Observations  Soil Data  Daily Summary Page  Observations in Plain Language
KONS 110600Z 03031G38KT 12/M07 A2998 RMK A01 T01201065  RH  027%=      5-min Rain = 0
KONS 110605Z 03029G36KT 12/M07 A2999 RMK A01 T01191065  RH  027%=      5-min Rain = 0
KONS 110610Z 03028G35KT 12/M07 A30 RMK A01 T01181065  RH  028%=      5-min Rain = 0
KONS 110615Z 02025G31KT 12/M06 A30 RMK A01 T01161064  RH  028%=      5-min Rain = 0
KONS 110620Z 02027G33KT 12/M06 A3001 RMK A01 T01151064  RH  028%=      5-min Rain = 0
KONS 110625Z 02024G30KT 11/M06 A3001 RMK A01 T01141064  RH  028%=      5-min Rain = 0
KONS 110630Z 02025G31KT 11/M06 A3001 RMK A01 T01131064  RH  029%=      5-min Rain = 0
KONS 110635Z 02025G32KT 11/M06 A3002 RMK A01 T01121063  RH  029%=      5-min Rain = 0
KONS 110640Z 02024G30KT 11/M06 A3002 RMK A01 T01111063  RH  029%=      5-min Rain = 0
KONS 110645Z 02024G32KT 11/M06 A3003 RMK A01 T01101063  RH  030%=      5-min Rain = 0
KONS 110650Z 02022G29KT 11/M06 A3003 RMK A01 T01091061  RH  030%=      5-min Rain = 0
KONS 110655Z 02024G30KT 11/M06 A3003 RMK A01 T01081060  RH  031%=      5-min Rain = 0
KONS 110700Z 02023G30KT 11/M06 A3004 RMK A01 T01071058  RH  031%=      5-min Rain = 0
KONS 110705Z 02023G29KT 11/M06 A3004 RMK A01 T01061057  RH  032%=      5-min Rain = 0
KONS 110710Z 02024KT 11/M06 A3005 RMK A01 T01061056  RH  032%=      5-min Rain = 0
KONS 110715Z 02024G31KT 11/M06 A3005 RMK A01 T01061055  RH  032%=      5-min Rain = 0
KONS 110720Z 02025G32KT 11/M05 A3005 RMK A01 T01051054  RH  032%=      5-min Rain = 0
KONS 110725Z 02021G28KT 10/M05 A3005 RMK A01 T01041054  RH  033%=      5-min Rain = 0
KONS 110730Z 02025G32KT 10/M05 A3005 RMK A01 T01031054  RH  033%=      5-min Rain = 0
KONS 110735Z 02024G29KT 10/M05 A3005 RMK A01 T01031053  RH  033%=      5-min Rain = 0
KONS 110740Z 02026G33KT 10/M05 A3006 RMK A01 T01021052  RH  034%=      5-min Rain = 0
KONS 110745Z 02026G33KT 10/M05 A3006 RMK A01 T01021051  RH  034%=      5-min Rain = 0
KONS 110750Z 02025G33KT 10/M05 A3006 RMK A01 T01021051  RH  034%=      5-min Rain = 0
KONS 110755Z 02024G31KT 10/M05 A3006 RMK A01 T01021050  RH  034%=      5-min Rain = 0
KONS 110800Z 02026G34KT 10/M05 A3006 RMK A01 T01011050  RH  035%=      5-min Rain = 0
KONS 110805Z 02025G31KT 10/M05 A3006 RMK A01 T01011049  RH  035%=      5-min Rain = 0
KONS 110810Z 02022G29KT 10/M05 A3006 RMK A01 T01001049  RH  035%=      5-min Rain = 0
KONS 110815Z 02020G25KT 10/M05 A3007 RMK A01 T00991049  RH  035%=      5-min Rain = 0
KONS 110820Z 02022G28KT 10/M05 A3007 RMK A01 T00991050  RH  035%=      5-min Rain = 0
KONS 110825Z 02021G26KT 10/M05 A3007 RMK A01 T00991050  RH  035%=      5-min Rain = 0
KONS 110830Z 02023G28KT 10/M05 A3007 RMK A01 T00991050  RH  035%=      5-min Rain = 0
KONS 110835Z 02023G29KT 10/M05 A3008 RMK A01 T00991050  RH  035%=      5-min Rain = 0
KONS 110840Z 02021G28KT 10/M05 A3008 RMK A01 T00981050  RH  035%=      5-min Rain = 0
KONS 110845Z 02022G29KT 10/M05 A3008 RMK A01 T00981051  RH  035%=      5-min Rain = 0
KONS 110850Z 02021G26KT 10/M05 A3008 RMK A01 T00981051  RH  035%=      5-min Rain = 0
KONS 110855Z 02022G29KT 10/M05 A3008 RMK A01 T00971051  RH  035%=      5-min Rain = 0
KONS 110900Z 02021G27KT 10/M05 A3008 RMK A01 T00971051  RH  035%=      5-min Rain = 0
KONS 110905Z 02023KT 10/M05 A3008 RMK A01 T00961052  RH  035%=      5-min Rain = 0
KONS 110910Z 02022G28KT 10/M05 A3008 RMK A01 T00961053  RH  035%=      5-min Rain = 0
KONS 110915Z 02021G27KT 10/M05 A3009 RMK A01 T00961053  RH  035%=      5-min Rain = 0
KONS 110920Z 02024G29KT 10/M05 A3009 RMK A01 T00961053  RH  035%=      5-min Rain = 0
KONS 110925Z 02021G28KT 10/M05 A3009 RMK A01 T00951053  RH  035%=      5-min Rain = 0
KONS 110930Z 02019G25KT 10/M05 A3009 RMK A01 T00951052  RH  035%=      5-min Rain = 0
KONS 110935Z 02019G25KT 09/M05 A3009 RMK A01 T00941052  RH  036%=      5-min Rain = 0
KONS 110940Z 02019G25KT 09/M05 A3009 RMK A01 T00931052  RH  036%=      5-min Rain = 0
KONS 110945Z 02020G25KT 09/M05 A3009 RMK A01 T00931051  RH  036%=      5-min Rain = 0
KONS 110950Z 02020G25KT 09/M05 A301 RMK A01 T00931052  RH  036%=      5-min Rain = 0
KONS 110955Z 02020G25KT 09/M05 A301 RMK A01 T00921052  RH  036%=      5-min Rain = 0
KONS 111000Z 02019G25KT 09/M05 A301 RMK A01 T00921052  RH  036%=      5-min Rain = 0
KONS 111005Z 02020KT 09/M05 A301 RMK A01 T00911053  RH  036%=      5-min Rain = 0
KONS 111010Z 02019G24KT 09/M05 A301 RMK A01 T00911054  RH  036%=      5-min Rain = 0
KONS 111015Z 02020G25KT 09/M06 A301 RMK A01 T00901055  RH  036%=      5-min Rain = 0
KONS 111020Z 02020G25KT 09/M06 A3011 RMK A01 T00901056  RH  036%=      5-min Rain = 0
KONS 111025Z 02019G25KT 09/M06 A3011 RMK A01 T00891055  RH  036%=      5-min Rain = 0
KONS 111030Z 02020G27KT 09/M05 A3011 RMK A01 T00881054  RH  036%=      5-min Rain = 0
KONS 111035Z 02023G28KT 09/M06 A3011 RMK A01 T00881055  RH  036%=      5-min Rain = 0
KONS 111040Z 02023G28KT 09/M06 A3011 RMK A01 T00871056  RH  036%=      5-min Rain = 0
KONS 111045Z 02025G32KT 09/M06 A3011 RMK A01 T00861059  RH  036%=      5-min Rain = 0
KONS 111050Z 02024G30KT 09/M06 A3011 RMK A01 T00851061  RH  036%=      5-min Rain = 0
KONS 111055Z 02022G28KT 08/M06 A3012 RMK A01 T00841060  RH  036%=      5-min Rain = 0
KONS 111100Z 02021G29KT 08/M06 A3012 RMK A01 T00821060  RH  036%=      5-min Rain = 0
KONS 111105Z 02022G29KT 08/M06 A3012 RMK A01 T00811060  RH  037%=      5-min Rain = 0
KONS 111110Z 02023G31KT 08/M06 A3012 RMK A01 T00801061  RH  037%=      5-min Rain = 0
KONS 111115Z 02025KT 08/M06 A3012 RMK A01 T00791061  RH  037%=      5-min Rain = 0
KONS 111120Z 02022G28KT 08/M06 A3013 RMK A01 T00781059  RH  038%=      5-min Rain = 0
KONS 111125Z 01021G26KT 07/M06 A3013 RMK A01 T00741057  RH  039%=      5-min Rain = 0
KONS 111130Z 01023G29KT 07/M06 A3014 RMK A01 T00731059  RH  039%=      5-min Rain = 0
KONS 111135Z 01021G30KT 07/M06 A3014 RMK A01 T00731059  RH  039%=      5-min Rain = 0
KONS 111140Z 02021G27KT 07/M06 A3014 RMK A01 T00721061  RH  039%=      5-min Rain = 0
KONS 111145Z 01021G26KT 07/M06 A3015 RMK A01 T00711063  RH  038%=      5-min Rain = 0
KONS 111150Z 01020G27KT 07/M07 A3015 RMK A01 T00701065  RH  038%=      5-min Rain = 0
KONS 111155Z 01024G29KT 07/M07 A3015 RMK A01 T00681070  RH  037%=      5-min Rain = 0
KONS 111200Z 01024G30KT 07/M07 A3015 RMK A01 T00671072  RH  037%=      5-min Rain = 0
KONS 111205Z 01024G33KT 07/M07 A3016 RMK A01 T00651073  RH  037%=      5-min Rain = 0
KONS 111210Z 02022G28KT 06/M07 A3016 RMK A01 T00641074  RH  037%=      5-min Rain = 0
KONS 111215Z 01023G32KT 06/M07 A3016 RMK A01 T00641074  RH  037%=      5-min Rain = 0
KONS 111220Z 02025G32KT 06/M08 A3017 RMK A01 T00621075  RH  037%=      5-min Rain = 0
KONS 111225Z 02022KT 06/M08 A3017 RMK A01 T00611075  RH  037%=      5-min Rain = 0
KONS 111230Z 01021G29KT 06/M08 A3018 RMK A01 T00601075  RH  038%=      5-min Rain = 0
KONS 111235Z 02023G30KT 06/M08 A3018 RMK A01 T00581077  RH  038%=      5-min Rain = 0
KONS 111240Z 02022G28KT 06/M08 A3018 RMK A01 T00571077  RH  038%=      5-min Rain = 0
KONS 111245Z 02021G26KT 06/M08 A3018 RMK A01 T00561077  RH  038%=      5-min Rain = 0
KONS 111250Z 02021G29KT 06/M08 A3018 RMK A01 T00551077  RH  038%=      5-min Rain = 0
KONS 111255Z 02021G30KT 05/M08 A3019 RMK A01 T00541076  RH  039%=      5-min Rain = 0
KONS 111300Z 01021G30KT 05/M08 A3019 RMK A01 T00541075  RH  039%=      5-min Rain = 0
KONS 111305Z 02022G27KT 05/M07 A302 RMK A01 T00521073  RH  040%=      5-min Rain = 0
KONS 111310Z 02022G28KT 05/M07 A302 RMK A01 T00511072  RH  041%=      5-min Rain = 0
KONS 111315Z 02019G24KT 05/M07 A302 RMK A01 T00501071  RH  042%=      5-min Rain = 0
KONS 111320Z 02020G26KT 05/M07 A3021 RMK A01 T00501070  RH  042%=      5-min Rain = 0
KONS 111325Z 02020G25KT 05/M07 A3021 RMK A01 T00481069  RH  043%=      5-min Rain = 0
KONS 111330Z 02020KT 05/M07 A302 RMK A01 T00481070  RH  043%=      5-min Rain = 0
KONS 111335Z 02017G23KT 05/M07 A3021 RMK A01 T00481068  RH  043%=      5-min Rain = 0
KONS 111340Z 02018G24KT 05/M07 A3021 RMK A01 T00471068  RH  044%=      5-min Rain = 0
KONS 111345Z 02019G24KT 05/M07 A3022 RMK A01 T00471069  RH  043%=      5-min Rain = 0
KONS 111350Z 02019G24KT 05/M07 A3022 RMK A01 T00471069  RH  043%=      5-min Rain = 0
KONS 111355Z 02021G27KT 05/M07 A3022 RMK A01 T00471069  RH  043%=      5-min Rain = 0
KONS 111400Z 02020G25KT 05/M07 A3022 RMK A01 T00471068  RH  044%=      5-min Rain = 0
KONS 111405Z 02018G25KT 05/M07 A3022 RMK A01 T00471068  RH  043%=      5-min Rain = 0
KONS 111410Z 02021G26KT 05/M07 A3023 RMK A01 T00471069  RH  043%=      5-min Rain = 0
KONS 111415Z 02021G26KT 05/M07 A3024 RMK A01 T00471069  RH  043%=      5-min Rain = 0
KONS 111420Z 02018G25KT 05/M07 A3024 RMK A01 T00471068  RH  044%=      5-min Rain = 0
KONS 111425Z 02022G27KT 05/M07 A3024 RMK A01 T00471069  RH  043%=      5-min Rain = 0
KONS 111430Z 01018G25KT 05/M07 A3025 RMK A01 T00471065  RH  045%=      5-min Rain = 0
KONS 111435Z 02020G25KT 05/M06 A3025 RMK A01 T00471063  RH  045%=      5-min Rain = 0
KONS 111440Z 02019KT 05/M06 A3026 RMK A01 T00471064  RH  045%=      5-min Rain = 0
KONS 111445Z 02017G22KT 05/M07 A3025 RMK A01 T00481067  RH  044%=      5-min Rain = 0
KONS 111450Z 01017G22KT 05/M07 A3026 RMK A01 T00481065  RH  044%=      5-min Rain = 0
KONS 111455Z 02021KT 05/M06 A3026 RMK A01 T00471064  RH  045%=      5-min Rain = 0
KONS 111500Z 02019G26KT 05/M06 A3026 RMK A01 T00471063  RH  045%=      5-min Rain = 0
KONS 111505Z 02019KT 05/M06 A3026 RMK A01 T00481063  RH  045%=      5-min Rain = 0
KONS 111510Z 01021G26KT 05/M07 A3027 RMK A01 T00481065  RH  044%=      5-min Rain = 0
KONS 111515Z 02021KT 05/M06 A3027 RMK A01 T00471064  RH  045%=      5-min Rain = 0
KONS 111520Z 01020G25KT 05/M06 A3027 RMK A01 T00461063  RH  045%=      5-min Rain = 0
KONS 111525Z 01021G26KT 05/M06 A3028 RMK A01 T00461063  RH  045%=      5-min Rain = 0
KONS 111530Z 01019G25KT 05/M06 A3028 RMK A01 T00461063  RH  046%=      5-min Rain = 0
KONS 111535Z 01020G25KT 05/M07 A3028 RMK A01 T00471066  RH  044%=      5-min Rain = 0
KONS 111540Z 01021KT 05/M07 A3028 RMK A01 T00501067  RH  043%=      5-min Rain = 0
KONS 111545Z 01021KT 05/M07 A3029 RMK A01 T00521069  RH  042%=      5-min Rain = 0
KONS 111550Z 00020KT 05/M07 A3029 RMK A01 T00521068  RH  042%=      5-min Rain = 0
KONS 111555Z 01020KT 05/M07 A3029 RMK A01 T00541069  RH  041%=      5-min Rain = 0
KONS 111600Z 01021KT 06/M07 A3029 RMK A01 T00561072  RH  040%=      5-min Rain = 0
KONS 111605Z 02018G25KT 06/M07 A3029 RMK A01 T00591071  RH  039%=      5-min Rain = 0
KONS 111610Z 01018G23KT 06/M07 A3029 RMK A01 T00631070  RH  038%=      5-min Rain = 0
KONS 111615Z 02019G24KT 07/M07 A303 RMK A01 T00651073  RH  037%=      5-min Rain = 0
KONS 111620Z 01017G23KT 07/M07 A303 RMK A01 T00671070  RH  037%=      5-min Rain = 0
KONS 111625Z 02019G24KT 07/M08 A303 RMK A01 T00691079  RH  034%=      5-min Rain = 0
KONS 111630Z 01018G23KT 07/M08 A303 RMK A01 T00691077  RH  035%=      5-min Rain = 0
KONS 111635Z 02018KT 07/M08 A303 RMK A01 T00671078  RH  035%=      5-min Rain = 0
KONS 111640Z 01018G24KT 07/M08 A303 RMK A01 T00721080  RH  034%=      5-min Rain = 0
KONS 111645Z 02020KT 07/M08 A303 RMK A01 T00701082  RH  033%=      5-min Rain = 0
KONS 111650Z 02018KT 07/M08 A303 RMK A01 T00701081  RH  034%=      5-min Rain = 0
KONS 111655Z 01016G22KT 07/M08 A303 RMK A01 T00721080  RH  034%=      5-min Rain = 0
KONS 111700Z 01016G22KT 07/M08 A303 RMK A01 T00741080  RH  033%=      5-min Rain = 0
KONS 111705Z 02017G22KT 07/M08 A303 RMK A01 T00741083  RH  032%=      5-min Rain = 0
KONS 111710Z 01017G23KT 08/M08 A303 RMK A01 T00761084  RH  031%=      5-min Rain = 0
KONS 111715Z 01020KT 08/M09 A303 RMK A01 T00791088  RH  030%=      5-min Rain = 0
KONS 111720Z 01017G22KT 08/M09 A303 RMK A01 T00781088  RH  030%=      5-min Rain = 0
KONS 111725Z 01017KT 08/M09 A303 RMK A01 T00781089  RH  030%=      5-min Rain = 0
KONS 111730Z 02017G22KT 08/M09 A3031 RMK A01 T00791086  RH  030%=      5-min Rain = 0
KONS 111735Z 02018KT 08/M09 A303 RMK A01 T00821089  RH  029%=      5-min Rain = 0
KONS 111740Z 01017G22KT 08/M09 A303 RMK A01 T00811090  RH  029%=      5-min Rain = 0
KONS 111745Z 01017G26KT 08/M09 A303 RMK A01 T00811089  RH  029%=      5-min Rain = 0
KONS 111750Z 01015G20KT 08/M09 A303 RMK A01 T00831088  RH  029%=      5-min Rain = 0
KONS 111755Z 01015G20KT 08/M09 A303 RMK A01 T00831088  RH  029%=      5-min Rain = 0
KONS 111800Z 00014KT 09/M09 A303 RMK A01 T00851087  RH  029%=      5-min Rain = 0
KONS 111805Z 00015KT 09/M09 A303 RMK A01 T00861088  RH  029%=      5-min Rain = 0
KONS 111810Z 00014G19KT 09/M09 A303 RMK A01 T00861086  RH  029%=      5-min Rain = 0
KONS 111815Z 01016G21KT 09/M09 A303 RMK A01 T00901087  RH  028%=      5-min Rain = 0
KONS 111820Z 02016G22KT 09/M09 A303 RMK A01 T00931086  RH  028%=      5-min Rain = 0
KONS 111825Z 02013G19KT 10/M09 A303 RMK A01 T00971087  RH  027%=      5-min Rain = 0
KONS 111830Z 00018G23KT 10/M09 A303 RMK A01 T00991089  RH  026%=      5-min Rain = 0
KONS 111835Z 01016G23KT 10/M09 A303 RMK A01 T01021089  RH  025%=      5-min Rain = 0
KONS 111840Z 02018G23KT 10/M09 A303 RMK A01 T01041093  RH  024%=      5-min Rain = 0
KONS 111845Z 01016G23KT 11/M09 A303 RMK A01 T01061091  RH  024%=      5-min Rain = 0
KONS 111850Z 01015G23KT 10/M09 A303 RMK A01 T01021092  RH  025%=      5-min Rain = 0
KONS 111855Z 01015G21KT 10/M09 A303 RMK A01 T01041091  RH  025%=      5-min Rain = 0
KONS 111900Z 01013KT 11/M09 A3029 RMK A01 T01101091  RH  024%=      5-min Rain = 0
KONS 111905Z 01015G22KT 11/M09 A3029 RMK A01 T01111093  RH  023%=      5-min Rain = 0
KONS 111910Z 01015G22KT 11/M10 A3029 RMK A01 T01071099  RH  023%=      5-min Rain = 0
KONS 111915Z 02016G22KT 10/M10 A3029 RMK A01 T01041098  RH  023%=      5-min Rain = 0
KONS 111920Z 01015KT 11/M10 A3029 RMK A01 T01081098  RH  023%=      5-min Rain = 0
KONS 111925Z 01016G21KT 11/M10 A3029 RMK A01 T01121098  RH  022%=      5-min Rain = 0
KONS 111930Z 01014G20KT 11/M10 A3029 RMK A01 T01131097  RH  022%=      5-min Rain = 0
KONS 111935Z 00016G21KT 11/M10 A3029 RMK A01 T01131099  RH  022%=      5-min Rain = 0
KONS 111940Z 02017G22KT 12/M10 A3028 RMK A01 T01151100  RH  021%=      5-min Rain = 0
KONS 111945Z 01012G18KT 12/M10 A3028 RMK A01 T01151099  RH  022%=      5-min Rain = 0
KONS 111950Z 01014G21KT 12/M10 A3028 RMK A01 T01171100  RH  021%=      5-min Rain = 0
KONS 111955Z 00014G19KT 12/M10 A3028 RMK A01 T01171099  RH  021%=      5-min Rain = 0
KONS 112000Z 01013G20KT 12/M10 A3028 RMK A01 T01151099  RH  021%=      5-min Rain = 0
KONS 112005Z 03015G22KT 12/M10 A3028 RMK A01 T01161101  RH  021%=      5-min Rain = 0
KONS 112010Z 01017G23KT 12/M10 A3028 RMK A01 T01161101  RH  021%=      5-min Rain = 0
KONS 112015Z 00014G19KT 12/M10 A3028 RMK A01 T01171103  RH  021%=      5-min Rain = 0
KONS 112020Z 36016G23KT 12/M10 A3027 RMK A01 T01181103  RH  021%=      5-min Rain = 0
KONS 112025Z 01014G20KT 12/M10 A3027 RMK A01 T01191103  RH  020%=      5-min Rain = 0
KONS 112030Z 01014G19KT 12/M11 A3027 RMK A01 T01221105  RH  020%=      5-min Rain = 0
KONS 112035Z 01014G21KT 12/M10 A3027 RMK A01 T01241104  RH  020%=      5-min Rain = 0
KONS 112040Z 03015G22KT 12/M11 A3027 RMK A01 T01221109  RH  019%=      5-min Rain = 0
KONS 112045Z 01012KT 12/M11 A3026 RMK A01 T01231106  RH  019%=      5-min Rain = 0
KONS 112050Z 02016G21KT 12/M11 A3026 RMK A01 T01231108  RH  019%=      5-min Rain = 0
KONS 112055Z 02016G22KT 12/M11 A3027 RMK A01 T01221108  RH  019%=      5-min Rain = 0
KONS 112100Z 01012G19KT 12/M11 A3027 RMK A01 T01201108  RH  019%=      5-min Rain = 0
KONS 112105Z 00014G19KT 12/M11 A3026 RMK A01 T01201108  RH  019%=      5-min Rain = 0
KONS 112110Z 00015KT 12/M11 A3026 RMK A01 T01201108  RH  019%=      5-min Rain = 0
KONS 112115Z 01014G20KT 12/M11 A3026 RMK A01 T01151111  RH  020%=      5-min Rain = 0
KONS 112120Z 01015G22KT 12/M11 A3026 RMK A01 T01161109  RH  020%=      5-min Rain = 0
KONS 112125Z 01012KT 12/M11 A3026 RMK A01 T01191109  RH  019%=      5-min Rain = 0
KONS 112130Z 36015G21KT 12/M11 A3026 RMK A01 T01231108  RH  019%=      5-min Rain = 0
KONS 112135Z 35013G20KT 12/M11 A3026 RMK A01 T01221108  RH  019%=      5-min Rain = 0
KONS 112140Z 01017G22KT 12/M11 A3026 RMK A01 T01201113  RH  019%=      5-min Rain = 0
KONS 112145Z 00013KT 12/M11 A3026 RMK A01 T01181110  RH  019%=      5-min Rain = 0
KONS 112150Z 00011G17KT 12/M11 A3026 RMK A01 T01201112  RH  019%=      5-min Rain = 0
KONS 112155Z 02011G16KT 12/M11 A3026 RMK A01 T01231112  RH  018%=      5-min Rain = 0
KONS 112200Z 01012G18KT 12/M11 A3026 RMK A01 T01231113  RH  018%=      5-min Rain = 0
KONS 112205Z 01011KT 12/M11 A3025 RMK A01 T01231114  RH  018%=      5-min Rain = 0
KONS 112210Z 01012G19KT 12/M11 A3026 RMK A01 T01231114  RH  018%=      5-min Rain = 0
KONS 112215Z 00013G21KT 12/M12 A3026 RMK A01 T01241116  RH  018%=      5-min Rain = 0
KONS 112220Z 36011G17KT 13/M12 A3025 RMK A01 T01261116  RH  018%=      5-min Rain = 0
KONS 112225Z 01013G18KT 13/M12 A3025 RMK A01 T01271117  RH  017%=      5-min Rain = 0
KONS 112230Z 02012KT 13/M12 A3025 RMK A01 T01271120  RH  017%=      5-min Rain = 0
KONS 112235Z 02011KT 13/M12 A3025 RMK A01 T01271119  RH  017%=      5-min Rain = 0
KONS 112240Z 00013G19KT 13/M12 A3026 RMK A01 T01271123  RH  017%=      5-min Rain = 0
KONS 112245Z 01013G18KT 13/M13 A3025 RMK A01 T01251125  RH  017%=      5-min Rain = 0
KONS 112250Z 02012KT 13/M13 A3025 RMK A01 T01271125  RH  016%=      5-min Rain = 0
KONS 112255Z 36012G17KT 13/M12 A3025 RMK A01 T01261122  RH  017%=      5-min Rain = 0
KONS 112300Z 01012G17KT 13/M12 A3026 RMK A01 T01251119  RH  017%=      5-min Rain = 0
KONS 112305Z 01012KT 13/M12 A3026 RMK A01 T01261120  RH  017%=      5-min Rain = 0
KONS 112310Z 01014KT 12/M12 A3026 RMK A01 T01241122  RH  017%=      5-min Rain = 0
KONS 112315Z 01012KT 12/M12 A3026 RMK A01 T01231119  RH  017%=      5-min Rain = 0
KONS 112320Z 02013KT 12/M12 A3026 RMK A01 T01241120  RH  017%=      5-min Rain = 0
KONS 112325Z 01012KT 12/M12 A3026 RMK A01 T01221118  RH  018%=      5-min Rain = 0
KONS 112330Z 02011KT 12/M12 A3026 RMK A01 T01231116  RH  018%=      5-min Rain = 0
KONS 112335Z 02013KT 12/M12 A3027 RMK A01 T01221117  RH  018%=      5-min Rain = 0
KONS 112340Z 01011KT 12/M12 A3027 RMK A01 T01201115  RH  018%=      5-min Rain = 0
KONS 112345Z 03012KT 12/M12 A3027 RMK A01 T01171118  RH  018%=      5-min Rain = 0
KONS 112350Z 02013G18KT 11/M12 A3027 RMK A01 T01131116  RH  019%=      5-min Rain = 0
KONS 112355Z 03011KT 11/M12 A3027 RMK A01 T01121115  RH  019%=      5-min Rain = 0
KONS 120000Z 01009KT 11/M11 A3027 RMK A01 T01121111  RH  020%=      5-min Rain = 0
KONS 120005Z 01011G16KT 11/M11 A3027 RMK A01 T01121112  RH  020%=      5-min Rain = 0
KONS 120010Z 02013KT 11/M11 A3027 RMK A01 T01131109  RH  020%=      5-min Rain = 0
KONS 120015Z 01011KT 11/M11 A3027 RMK A01 T01111109  RH  020%=      5-min Rain = 0
KONS 120020Z 01010KT 11/M11 A3028 RMK A01 T01091109  RH  021%=      5-min Rain = 0
KONS 120025Z 01010KT 11/M11 A3028 RMK A01 T01081110  RH  021%=      5-min Rain = 0
KONS 120030Z 01008KT 11/M11 A3028 RMK A01 T01071109  RH  021%=      5-min Rain = 0
KONS 120035Z 01010KT 11/M11 A3028 RMK A01 T01061109  RH  021%=      5-min Rain = 0
KONS 120040Z 02009KT 11/M11 A3028 RMK A01 T01051107  RH  022%=      5-min Rain = 0
KONS 120045Z 02010KT 10/M11 A3029 RMK A01 T01011111  RH  022%=      5-min Rain = 0
KONS 120050Z 01011KT 10/M12 A3029 RMK A01 T00981123  RH  020%=      5-min Rain = 0
KONS 120055Z 01011KT 10/M13 A3029 RMK A01 T00971126  RH  020%=      5-min Rain = 0
KONS 120100Z 01010KT 09/M12 A3029 RMK A01 T00931122  RH  021%=      5-min Rain = 0
KONS 120105Z 02010KT 09/M12 A3029 RMK A01 T00891119  RH  022%=      5-min Rain = 0
KONS 120110Z 02008KT 08/M12 A3029 RMK A01 T00841116  RH  023%=      5-min Rain = 0
KONS 120115Z 02008KT 08/M12 A3029 RMK A01 T00801120  RH  023%=      5-min Rain = 0
KONS 120120Z 02008KT 08/M12 A303 RMK A01 T00791122  RH  023%=      5-min Rain = 0
KONS 120125Z 01007KT 08/M12 A303 RMK A01 T00771121  RH  023%=      5-min Rain = 0
KONS 120130Z 02007KT 08/M12 A303 RMK A01 T00751118  RH  024%=      5-min Rain = 0
KONS 120135Z 01007KT 07/M12 A303 RMK A01 T00721117  RH  025%=      5-min Rain = 0
KONS 120140Z 01007KT 07/M12 A303 RMK A01 T00711118  RH  025%=      5-min Rain = 0
KONS 120145Z 01008KT 07/M12 A303 RMK A01 T00701119  RH  025%=      5-min Rain = 0
KONS 120150Z 01007KT 07/M12 A3031 RMK A01 T00701118  RH  025%=      5-min Rain = 0
KONS 120155Z 01007KT 07/M12 A3031 RMK A01 T00691118  RH  025%=      5-min Rain = 0
KONS 120200Z 01007KT 07/M12 A3031 RMK A01 T00691118  RH  025%=      5-min Rain = 0
KONS 120205Z 02006KT 07/M12 A3031 RMK A01 T00681117  RH  026%=      5-min Rain = 0
KONS 120210Z 02006KT 07/M12 A3031 RMK A01 T00671116  RH  026%=      5-min Rain = 0
KONS 120215Z 02006KT 07/M12 A3031 RMK A01 T00661118  RH  026%=      5-min Rain = 0
KONS 120220Z 02006KT 07/M12 A3032 RMK A01 T00651118  RH  026%=      5-min Rain = 0
KONS 120225Z 02005KT 06/M12 A3032 RMK A01 T00631117  RH  027%=      5-min Rain = 0
KONS 120230Z 02005KT 06/M12 A3032 RMK A01 T00631120  RH  026%=      5-min Rain = 0
KONS 120235Z 02005KT 06/M12 A3032 RMK A01 T00641123  RH  025%=      5-min Rain = 0
KONS 120240Z 02004KT 07/M13 A3032 RMK A01 T00651125  RH  025%=      5-min Rain = 0
KONS 120245Z 02005KT 07/M13 A3032 RMK A01 T00661128  RH  024%=      5-min Rain = 0
KONS 120250Z 01005KT 07/M13 A3032 RMK A01 T00651126  RH  024%=      5-min Rain = 0
KONS 120255Z 01004KT 06/M12 A3032 RMK A01 T00601120  RH  027%=      5-min Rain = 0
KONS 120300Z 36004KT 06/M12 A3033 RMK A01 T00561119  RH  027%=      5-min Rain = 0
KONS 120305Z 36004KT 05/M12 A3033 RMK A01 T00541121  RH  027%=      5-min Rain = 0
KONS 120310Z 36003KT 05/M12 A3033 RMK A01 T00521120  RH  028%=      5-min Rain = 0
KONS 120315Z 00004KT 05/M12 A3033 RMK A01 T00511121  RH  028%=      5-min Rain = 0
KONS 120320Z 00004KT 05/M12 A3033 RMK A01 T00501121  RH  028%=      5-min Rain = 0
KONS 120325Z 00005KT 05/M12 A3034 RMK A01 T00471119  RH  029%=      5-min Rain = 0
KONS 120330Z 01005KT 05/M12 A3034 RMK A01 T00451119  RH  030%=      5-min Rain = 0
KONS 120335Z 01006KT 04/M12 A3034 RMK A01 T00421120  RH  030%=      5-min Rain = 0
KONS 120340Z 01005KT 04/M12 A3034 RMK A01 T00401120  RH  030%=      5-min Rain = 0
KONS 120345Z 01006KT 04/M12 A3034 RMK A01 T00391121  RH  031%=      5-min Rain = 0
KONS 120350Z 01006KT 04/M12 A3034 RMK A01 T00361118  RH  032%=      5-min Rain = 0
KONS 120355Z 01006KT 03/M12 A3034 RMK A01 T00341116  RH  033%=      5-min Rain = 0
KONS 120400Z 01006KT 04/M12 A3034 RMK A01 T00361117  RH  032%=      5-min Rain = 0
KONS 120405Z 02007KT 04/M12 A3034 RMK A01 T00391116  RH  032%=      5-min Rain = 0
KONS 120410Z 02006KT 04/M12 A3034 RMK A01 T00401115  RH  032%=      5-min Rain = 0
KONS 120415Z 03006KT 04/M11 A3034 RMK A01 T00411113  RH  032%=      5-min Rain = 0
KONS 120420Z 03006KT 04/M11 A3034 RMK A01 T00401112  RH  032%=      5-min Rain = 0
KONS 120425Z 04006KT 04/M11 A3034 RMK A01 T00401110  RH  033%=      5-min Rain = 0
KONS 120430Z 04006KT 04/M11 A3034 RMK A01 T00411109  RH  033%=      5-min Rain = 0
KONS 120435Z 04006KT 04/M11 A3034 RMK A01 T00421114  RH  031%=      5-min Rain = 0
KONS 120440Z 03006KT 04/M12 A3034 RMK A01 T00431118  RH  030%=      5-min Rain = 0
KONS 120445Z 03006KT 04/M12 A3034 RMK A01 T00421116  RH  031%=      5-min Rain = 0
KONS 120450Z 03006KT 04/M11 A3034 RMK A01 T00411114  RH  032%=      5-min Rain = 0
KONS 120455Z 03006KT 04/M11 A3034 RMK A01 T00391114  RH  032%=      5-min Rain = 0

Page generated in 0.0087 seconds.